sensor_id;sensor_type;location;lat;lon;timestamp;P1;durP1;ratioP1;P2;durP2;ratioP2
6177;SDS011;3122;48.208;11.174;2022-12-07T00:03:01;13.93;;;9.50;;
6177;SDS011;3122;48.208;11.174;2022-12-07T00:08:02;14.10;;;9.33;;
6177;SDS011;3122;48.208;11.174;2022-12-07T00:13:02;14.20;;;9.30;;
6177;SDS011;3122;48.208;11.174;2022-12-07T00:18:03;14.63;;;10.03;;
6177;SDS011;3122;48.208;11.174;2022-12-07T00:23:04;14.60;;;8.83;;
6177;SDS011;3122;48.208;11.174;2022-12-07T00:28:04;14.80;;;9.30;;
6177;SDS011;3122;48.208;11.174;2022-12-07T00:33:05;17.37;;;9.27;;
6177;SDS011;3122;48.208;11.174;2022-12-07T00:38:05;13.53;;;8.97;;
6177;SDS011;3122;48.208;11.174;2022-12-07T00:43:06;18.40;;;9.53;;
6177;SDS011;3122;48.208;11.174;2022-12-07T00:48:06;16.40;;;10.20;;
6177;SDS011;3122;48.208;11.174;2022-12-07T00:53:07;13.77;;;9.03;;
6177;SDS011;3122;48.208;11.174;2022-12-07T00:58:07;11.73;;;8.27;;
6177;SDS011;3122;48.208;11.174;2022-12-07T01:03:09;13.97;;;8.57;;
6177;SDS011;3122;48.208;11.174;2022-12-07T01:08:11;12.63;;;8.50;;
6177;SDS011;3122;48.208;11.174;2022-12-07T01:13:12;13.67;;;8.63;;
6177;SDS011;3122;48.208;11.174;2022-12-07T01:18:13;13.43;;;9.00;;
6177;SDS011;3122;48.208;11.174;2022-12-07T01:23:13;11.67;;;8.40;;
6177;SDS011;3122;48.208;11.174;2022-12-07T01:28:14;11.33;;;8.50;;
6177;SDS011;3122;48.208;11.174;2022-12-07T01:33:14;10.80;;;7.47;;
6177;SDS011;3122;48.208;11.174;2022-12-07T01:38:15;13.77;;;8.87;;
6177;SDS011;3122;48.208;11.174;2022-12-07T01:43:18;14.90;;;8.97;;
6177;SDS011;3122;48.208;11.174;2022-12-07T01:48:21;13.80;;;9.13;;
6177;SDS011;3122;48.208;11.174;2022-12-07T01:53:36;12.53;;;8.40;;
6177;SDS011;3122;48.208;11.174;2022-12-07T01:58:39;13.03;;;8.00;;
6177;SDS011;3122;48.208;11.174;2022-12-07T02:03:41;12.97;;;8.40;;
6177;SDS011;3122;48.208;11.174;2022-12-07T02:08:43;13.13;;;8.33;;
6177;SDS011;3122;48.208;11.174;2022-12-07T02:13:44;12.10;;;8.37;;
6177;SDS011;3122;48.208;11.174;2022-12-07T02:39:59;13.00;;;8.23;;
6177;SDS011;3122;48.208;11.174;2022-12-07T02:45:04;12.83;;;7.77;;
6177;SDS011;3122;48.208;11.174;2022-12-07T02:50:07;11.90;;;8.30;;
6177;SDS011;3122;48.208;11.174;2022-12-07T02:55:08;12.60;;;8.50;;
6177;SDS011;3122;48.208;11.174;2022-12-07T03:00:09;11.90;;;8.40;;
6177;SDS011;3122;48.208;11.174;2022-12-07T03:11:03;14.00;;;8.33;;
6177;SDS011;3122;48.208;11.174;2022-12-07T03:21:50;12.33;;;8.40;;
6177;SDS011;3122;48.208;11.174;2022-12-07T03:27:05;12.50;;;8.00;;
6177;SDS011;3122;48.208;11.174;2022-12-07T03:32:26;12.40;;;8.20;;
6177;SDS011;3122;48.208;11.174;2022-12-07T03:37:36;12.30;;;8.40;;
6177;SDS011;3122;48.208;11.174;2022-12-07T03:42:41;12.07;;;8.10;;
6177;SDS011;3122;48.208;11.174;2022-12-07T03:53:10;15.87;;;9.73;;
6177;SDS011;3122;48.208;11.174;2022-12-07T03:58:16;13.93;;;8.43;;
6177;SDS011;3122;48.208;11.174;2022-12-07T04:03:20;11.80;;;8.27;;
6177;SDS011;3122;48.208;11.174;2022-12-07T04:08:21;13.10;;;8.67;;
6177;SDS011;3122;48.208;11.174;2022-12-07T04:13:21;15.50;;;10.03;;
6177;SDS011;3122;48.208;11.174;2022-12-07T04:18:22;13.77;;;8.50;;
6177;SDS011;3122;48.208;11.174;2022-12-07T04:23:22;13.73;;;8.87;;
6177;SDS011;3122;48.208;11.174;2022-12-07T04:28:23;13.03;;;9.00;;
6177;SDS011;3122;48.208;11.174;2022-12-07T04:33:23;12.60;;;8.67;;
6177;SDS011;3122;48.208;11.174;2022-12-07T04:38:24;16.47;;;10.40;;
6177;SDS011;3122;48.208;11.174;2022-12-07T04:43:24;15.40;;;10.43;;
6177;SDS011;3122;48.208;11.174;2022-12-07T04:48:25;15.53;;;10.07;;
6177;SDS011;3122;48.208;11.174;2022-12-07T04:53:26;16.63;;;10.10;;
6177;SDS011;3122;48.208;11.174;2022-12-07T04:58:26;13.90;;;9.10;;
6177;SDS011;3122;48.208;11.174;2022-12-07T05:03:27;13.33;;;8.90;;
6177;SDS011;3122;48.208;11.174;2022-12-07T05:08:27;14.40;;;9.97;;
6177;SDS011;3122;48.208;11.174;2022-12-07T05:13:28;17.43;;;10.30;;
6177;SDS011;3122;48.208;11.174;2022-12-07T05:18:28;16.60;;;10.00;;
6177;SDS011;3122;48.208;11.174;2022-12-07T05:23:29;15.90;;;10.07;;
6177;SDS011;3122;48.208;11.174;2022-12-07T05:28:29;18.07;;;11.17;;
6177;SDS011;3122;48.208;11.174;2022-12-07T05:33:30;16.40;;;10.67;;
6177;SDS011;3122;48.208;11.174;2022-12-07T05:38:31;17.87;;;10.20;;
6177;SDS011;3122;48.208;11.174;2022-12-07T05:43:32;17.90;;;10.77;;
6177;SDS011;3122;48.208;11.174;2022-12-07T05:48:33;20.40;;;11.00;;
6177;SDS011;3122;48.208;11.174;2022-12-07T05:53:35;18.50;;;10.50;;
6177;SDS011;3122;48.208;11.174;2022-12-07T05:58:35;24.40;;;11.47;;
6177;SDS011;3122;48.208;11.174;2022-12-07T06:03:54;21.03;;;11.43;;
6177;SDS011;3122;48.208;11.174;2022-12-07T06:08:55;19.73;;;11.63;;
6177;SDS011;3122;48.208;11.174;2022-12-07T06:13:55;23.50;;;13.20;;
6177;SDS011;3122;48.208;11.174;2022-12-07T06:18:56;20.87;;;11.17;;
6177;SDS011;3122;48.208;11.174;2022-12-07T06:23:57;48.70;;;26.50;;
6177;SDS011;3122;48.208;11.174;2022-12-07T06:28:57;22.80;;;13.50;;
6177;SDS011;3122;48.208;11.174;2022-12-07T06:33:58;25.93;;;14.97;;
6177;SDS011;3122;48.208;11.174;2022-12-07T06:39:00;23.20;;;13.30;;
6177;SDS011;3122;48.208;11.174;2022-12-07T06:44:01;39.07;;;21.13;;
6177;SDS011;3122;48.208;11.174;2022-12-07T06:49:02;23.43;;;13.30;;
6177;SDS011;3122;48.208;11.174;2022-12-07T06:54:04;27.30;;;13.60;;
6177;SDS011;3122;48.208;11.174;2022-12-07T06:59:05;21.73;;;12.67;;
6177;SDS011;3122;48.208;11.174;2022-12-07T07:04:06;21.30;;;12.47;;
6177;SDS011;3122;48.208;11.174;2022-12-07T07:09:07;22.83;;;13.57;;
6177;SDS011;3122;48.208;11.174;2022-12-07T07:14:09;27.87;;;14.63;;
6177;SDS011;3122;48.208;11.174;2022-12-07T07:19:09;25.40;;;13.37;;
6177;SDS011;3122;48.208;11.174;2022-12-07T07:24:10;24.80;;;12.10;;
6177;SDS011;3122;48.208;11.174;2022-12-07T07:29:10;23.23;;;12.23;;
6177;SDS011;3122;48.208;11.174;2022-12-07T07:34:11;22.90;;;12.77;;
6177;SDS011;3122;48.208;11.174;2022-12-07T07:39:12;20.97;;;11.60;;
6177;SDS011;3122;48.208;11.174;2022-12-07T07:44:12;26.63;;;14.33;;
6177;SDS011;3122;48.208;11.174;2022-12-07T07:49:13;20.90;;;12.70;;
6177;SDS011;3122;48.208;11.174;2022-12-07T07:54:13;24.50;;;13.43;;
6177;SDS011;3122;48.208;11.174;2022-12-07T07:59:14;23.10;;;12.80;;
6177;SDS011;3122;48.208;11.174;2022-12-07T08:04:15;26.53;;;13.40;;
6177;SDS011;3122;48.208;11.174;2022-12-07T08:09:16;26.93;;;14.50;;
6177;SDS011;3122;48.208;11.174;2022-12-07T08:14:16;24.90;;;13.10;;
6177;SDS011;3122;48.208;11.174;2022-12-07T08:19:17;24.03;;;13.77;;
6177;SDS011;3122;48.208;11.174;2022-12-07T08:24:17;23.93;;;13.80;;
6177;SDS011;3122;48.208;11.174;2022-12-07T08:29:18;26.33;;;13.40;;
6177;SDS011;3122;48.208;11.174;2022-12-07T08:34:19;25.63;;;13.80;;
6177;SDS011;3122;48.208;11.174;2022-12-07T08:39:19;25.07;;;13.77;;
6177;SDS011;3122;48.208;11.174;2022-12-07T08:44:20;25.20;;;13.50;;
6177;SDS011;3122;48.208;11.174;2022-12-07T08:49:24;29.10;;;14.07;;
6177;SDS011;3122;48.208;11.174;2022-12-07T08:54:30;26.33;;;14.10;;
6177;SDS011;3122;48.208;11.174;2022-12-07T08:59:36;31.30;;;13.70;;
6177;SDS011;3122;48.208;11.174;2022-12-07T09:04:37;32.43;;;13.80;;
6177;SDS011;3122;48.208;11.174;2022-12-07T09:09:38;26.67;;;14.03;;
6177;SDS011;3122;48.208;11.174;2022-12-07T09:14:38;28.40;;;15.20;;
6177;SDS011;3122;48.208;11.174;2022-12-07T09:19:39;28.07;;;14.70;;
6177;SDS011;3122;48.208;11.174;2022-12-07T09:24:41;25.50;;;13.73;;
6177;SDS011;3122;48.208;11.174;2022-12-07T09:29:42;29.23;;;15.90;;
6177;SDS011;3122;48.208;11.174;2022-12-07T09:34:42;24.33;;;13.60;;
6177;SDS011;3122;48.208;11.174;2022-12-07T09:39:43;22.60;;;12.40;;
6177;SDS011;3122;48.208;11.174;2022-12-07T09:44:43;21.87;;;12.10;;
6177;SDS011;3122;48.208;11.174;2022-12-07T09:49:44;22.60;;;12.00;;
6177;SDS011;3122;48.208;11.174;2022-12-07T09:54:46;23.10;;;12.30;;
6177;SDS011;3122;48.208;11.174;2022-12-07T09:59:48;23.60;;;12.10;;
6177;SDS011;3122;48.208;11.174;2022-12-07T10:04:48;20.60;;;11.60;;
6177;SDS011;3122;48.208;11.174;2022-12-07T10:09:49;20.80;;;11.33;;
6177;SDS011;3122;48.208;11.174;2022-12-07T10:14:54;19.17;;;10.90;;
6177;SDS011;3122;48.208;11.174;2022-12-07T10:25:18;20.50;;;10.90;;
6177;SDS011;3122;48.208;11.174;2022-12-07T10:30:20;18.17;;;10.17;;
6177;SDS011;3122;48.208;11.174;2022-12-07T10:35:22;19.17;;;10.10;;
6177;SDS011;3122;48.208;11.174;2022-12-07T10:40:33;19.67;;;10.80;;
6177;SDS011;3122;48.208;11.174;2022-12-07T10:45:36;18.50;;;9.53;;
6177;SDS011;3122;48.208;11.174;2022-12-07T10:50:59;18.60;;;9.93;;
6177;SDS011;3122;48.208;11.174;2022-12-07T11:01:45;14.23;;;8.53;;
6177;SDS011;3122;48.208;11.174;2022-12-07T11:07:06;16.43;;;9.47;;
6177;SDS011;3122;48.208;11.174;2022-12-07T11:12:34;15.20;;;8.77;;
6177;SDS011;3122;48.208;11.174;2022-12-07T11:23:17;16.27;;;9.87;;
6177;SDS011;3122;48.208;11.174;2022-12-07T11:33:37;16.07;;;9.63;;
6177;SDS011;3122;48.208;11.174;2022-12-07T11:38:50;15.63;;;8.60;;
6177;SDS011;3122;48.208;11.174;2022-12-07T11:43:55;16.13;;;9.53;;
6177;SDS011;3122;48.208;11.174;2022-12-07T11:49:02;14.00;;;8.70;;
6177;SDS011;3122;48.208;11.174;2022-12-07T11:54:29;15.00;;;8.90;;
6177;SDS011;3122;48.208;11.174;2022-12-07T11:59:45;15.20;;;8.67;;
6177;SDS011;3122;48.208;11.174;2022-12-07T12:10:16;13.53;;;8.00;;
6177;SDS011;3122;48.208;11.174;2022-12-07T12:21:00;12.40;;;7.57;;
6177;SDS011;3122;48.208;11.174;2022-12-07T12:26:06;13.73;;;8.17;;
6177;SDS011;3122;48.208;11.174;2022-12-07T12:36:43;13.63;;;9.10;;
6177;SDS011;3122;48.208;11.174;2022-12-07T12:57:52;13.30;;;8.07;;
6177;SDS011;3122;48.208;11.174;2022-12-07T13:03:31;13.70;;;8.37;;
6177;SDS011;3122;48.208;11.174;2022-12-07T13:08:34;13.03;;;7.60;;
6177;SDS011;3122;48.208;11.174;2022-12-07T13:13:35;14.57;;;8.40;;
6177;SDS011;3122;48.208;11.174;2022-12-07T13:18:37;14.70;;;8.47;;
6177;SDS011;3122;48.208;11.174;2022-12-07T13:28:48;12.97;;;8.30;;
6177;SDS011;3122;48.208;11.174;2022-12-07T13:33:53;13.83;;;9.10;;
6177;SDS011;3122;48.208;11.174;2022-12-07T13:38:54;13.87;;;8.50;;
6177;SDS011;3122;48.208;11.174;2022-12-07T13:44:02;15.67;;;9.20;;
6177;SDS011;3122;48.208;11.174;2022-12-07T13:49:24;13.30;;;8.83;;
6177;SDS011;3122;48.208;11.174;2022-12-07T13:54:30;17.30;;;9.73;;
6177;SDS011;3122;48.208;11.174;2022-12-07T13:59:30;14.00;;;8.77;;
6177;SDS011;3122;48.208;11.174;2022-12-07T14:04:37;12.20;;;8.50;;
6177;SDS011;3122;48.208;11.174;2022-12-07T14:09:37;13.33;;;8.67;;
6177;SDS011;3122;48.208;11.174;2022-12-07T14:14:38;11.70;;;7.57;;
6177;SDS011;3122;48.208;11.174;2022-12-07T14:24:49;13.20;;;7.83;;
6177;SDS011;3122;48.208;11.174;2022-12-07T14:29:50;11.57;;;7.50;;
6177;SDS011;3122;48.208;11.174;2022-12-07T14:34:54;17.43;;;9.03;;
6177;SDS011;3122;48.208;11.174;2022-12-07T14:39:56;16.40;;;8.13;;
6177;SDS011;3122;48.208;11.174;2022-12-07T14:44:57;15.13;;;8.10;;
6177;SDS011;3122;48.208;11.174;2022-12-07T14:49:58;14.10;;;8.50;;
6177;SDS011;3122;48.208;11.174;2022-12-07T14:54:58;12.17;;;8.60;;
6177;SDS011;3122;48.208;11.174;2022-12-07T14:59:59;15.53;;;7.60;;
6177;SDS011;3122;48.208;11.174;2022-12-07T15:05:00;11.93;;;7.23;;
6177;SDS011;3122;48.208;11.174;2022-12-07T15:10:00;12.17;;;7.73;;
6177;SDS011;3122;48.208;11.174;2022-12-07T15:15:01;13.43;;;8.07;;
6177;SDS011;3122;48.208;11.174;2022-12-07T15:20:01;12.00;;;7.20;;
6177;SDS011;3122;48.208;11.174;2022-12-07T15:25:03;18.37;;;10.50;;
6177;SDS011;3122;48.208;11.174;2022-12-07T15:30:06;15.60;;;8.80;;
6177;SDS011;3122;48.208;11.174;2022-12-07T15:35:07;14.63;;;9.10;;
6177;SDS011;3122;48.208;11.174;2022-12-07T15:40:08;18.93;;;9.87;;
6177;SDS011;3122;48.208;11.174;2022-12-07T15:45:09;15.40;;;9.10;;
6177;SDS011;3122;48.208;11.174;2022-12-07T15:50:11;10.73;;;7.30;;
6177;SDS011;3122;48.208;11.174;2022-12-07T15:55:14;14.63;;;8.27;;
6177;SDS011;3122;48.208;11.174;2022-12-07T16:00:14;14.20;;;9.17;;
6177;SDS011;3122;48.208;11.174;2022-12-07T16:05:15;13.97;;;8.53;;
6177;SDS011;3122;48.208;11.174;2022-12-07T16:10:16;18.03;;;10.90;;
6177;SDS011;3122;48.208;11.174;2022-12-07T16:15:16;18.70;;;12.07;;
6177;SDS011;3122;48.208;11.174;2022-12-07T16:20:17;20.83;;;12.07;;
6177;SDS011;3122;48.208;11.174;2022-12-07T16:25:18;18.90;;;11.90;;
6177;SDS011;3122;48.208;11.174;2022-12-07T16:30:18;21.37;;;9.63;;
6177;SDS011;3122;48.208;11.174;2022-12-07T16:35:19;22.30;;;13.43;;
6177;SDS011;3122;48.208;11.174;2022-12-07T16:40:20;22.67;;;13.23;;
6177;SDS011;3122;48.208;11.174;2022-12-07T16:45:20;24.53;;;12.13;;
6177;SDS011;3122;48.208;11.174;2022-12-07T16:50:21;30.60;;;15.60;;
6177;SDS011;3122;48.208;11.174;2022-12-07T16:55:21;20.03;;;10.03;;
6177;SDS011;3122;48.208;11.174;2022-12-07T17:00:22;18.30;;;9.63;;
6177;SDS011;3122;48.208;11.174;2022-12-07T17:05:23;16.33;;;9.43;;
6177;SDS011;3122;48.208;11.174;2022-12-07T17:10:24;17.60;;;10.93;;
6177;SDS011;3122;48.208;11.174;2022-12-07T17:15:25;21.47;;;12.57;;
6177;SDS011;3122;48.208;11.174;2022-12-07T17:20:26;20.37;;;12.00;;
6177;SDS011;3122;48.208;11.174;2022-12-07T17:25:27;27.03;;;13.80;;
6177;SDS011;3122;48.208;11.174;2022-12-07T17:30:27;32.40;;;16.43;;
6177;SDS011;3122;48.208;11.174;2022-12-07T17:35:29;30.17;;;15.90;;
6177;SDS011;3122;48.208;11.174;2022-12-07T17:40:29;25.27;;;12.70;;
6177;SDS011;3122;48.208;11.174;2022-12-07T17:45:30;21.87;;;11.87;;
6177;SDS011;3122;48.208;11.174;2022-12-07T17:50:30;22.23;;;11.53;;
6177;SDS011;3122;48.208;11.174;2022-12-07T17:55:51;25.50;;;13.30;;
6177;SDS011;3122;48.208;11.174;2022-12-07T18:00:53;33.53;;;15.97;;
6177;SDS011;3122;48.208;11.174;2022-12-07T18:05:54;26.80;;;15.13;;
6177;SDS011;3122;48.208;11.174;2022-12-07T18:11:00;20.30;;;12.37;;
6177;SDS011;3122;48.208;11.174;2022-12-07T18:16:02;20.43;;;11.80;;
6177;SDS011;3122;48.208;11.174;2022-12-07T18:21:06;19.50;;;12.20;;
6177;SDS011;3122;48.208;11.174;2022-12-07T18:26:07;18.47;;;12.07;;
6177;SDS011;3122;48.208;11.174;2022-12-07T18:31:08;19.27;;;11.90;;
6177;SDS011;3122;48.208;11.174;2022-12-07T18:36:09;21.63;;;11.60;;
6177;SDS011;3122;48.208;11.174;2022-12-07T18:41:10;24.10;;;12.40;;
6177;SDS011;3122;48.208;11.174;2022-12-07T18:46:14;22.03;;;13.13;;
6177;SDS011;3122;48.208;11.174;2022-12-07T18:51:18;22.80;;;12.93;;
6177;SDS011;3122;48.208;11.174;2022-12-07T18:56:20;19.30;;;11.20;;
6177;SDS011;3122;48.208;11.174;2022-12-07T19:01:22;20.13;;;11.80;;
6177;SDS011;3122;48.208;11.174;2022-12-07T19:06:23;24.27;;;15.20;;
6177;SDS011;3122;48.208;11.174;2022-12-07T19:11:27;32.30;;;18.80;;
6177;SDS011;3122;48.208;11.174;2022-12-07T19:16:49;29.53;;;17.03;;
6177;SDS011;3122;48.208;11.174;2022-12-07T19:21:51;24.70;;;14.60;;
6177;SDS011;3122;48.208;11.174;2022-12-07T19:26:52;24.47;;;13.90;;
6177;SDS011;3122;48.208;11.174;2022-12-07T19:31:52;29.30;;;16.53;;
6177;SDS011;3122;48.208;11.174;2022-12-07T19:36:53;38.93;;;21.07;;
6177;SDS011;3122;48.208;11.174;2022-12-07T19:41:54;27.40;;;15.00;;
6177;SDS011;3122;48.208;11.174;2022-12-07T19:46:56;20.90;;;12.90;;
6177;SDS011;3122;48.208;11.174;2022-12-07T19:51:59;29.37;;;18.03;;
6177;SDS011;3122;48.208;11.174;2022-12-07T19:57:04;22.83;;;13.50;;
6177;SDS011;3122;48.208;11.174;2022-12-07T20:02:08;22.03;;;12.83;;
6177;SDS011;3122;48.208;11.174;2022-12-07T20:07:11;22.07;;;13.07;;
6177;SDS011;3122;48.208;11.174;2022-12-07T20:12:11;20.30;;;10.87;;
6177;SDS011;3122;48.208;11.174;2022-12-07T20:17:31;24.80;;;13.70;;
6177;SDS011;3122;48.208;11.174;2022-12-07T20:22:32;35.77;;;20.50;;
6177;SDS011;3122;48.208;11.174;2022-12-07T20:27:33;32.27;;;17.67;;
6177;SDS011;3122;48.208;11.174;2022-12-07T20:32:33;23.57;;;14.00;;
6177;SDS011;3122;48.208;11.174;2022-12-07T20:37:34;26.17;;;15.07;;
6177;SDS011;3122;48.208;11.174;2022-12-07T20:42:34;22.97;;;12.80;;
6177;SDS011;3122;48.208;11.174;2022-12-07T20:47:37;20.37;;;11.60;;
6177;SDS011;3122;48.208;11.174;2022-12-07T20:52:38;21.40;;;11.83;;
6177;SDS011;3122;48.208;11.174;2022-12-07T20:57:39;27.40;;;14.30;;
6177;SDS011;3122;48.208;11.174;2022-12-07T21:02:39;21.53;;;12.33;;
6177;SDS011;3122;48.208;11.174;2022-12-07T21:07:40;21.70;;;12.13;;
6177;SDS011;3122;48.208;11.174;2022-12-07T21:12:40;23.37;;;12.13;;
6177;SDS011;3122;48.208;11.174;2022-12-07T21:17:41;25.10;;;12.40;;
6177;SDS011;3122;48.208;11.174;2022-12-07T21:22:42;21.20;;;12.20;;
6177;SDS011;3122;48.208;11.174;2022-12-07T21:27:42;19.30;;;11.57;;
6177;SDS011;3122;48.208;11.174;2022-12-07T21:32:43;21.90;;;11.90;;
6177;SDS011;3122;48.208;11.174;2022-12-07T21:37:43;22.77;;;12.60;;
6177;SDS011;3122;48.208;11.174;2022-12-07T21:42:44;20.30;;;11.23;;
6177;SDS011;3122;48.208;11.174;2022-12-07T21:47:44;20.93;;;12.47;;
6177;SDS011;3122;48.208;11.174;2022-12-07T21:52:45;22.10;;;12.60;;
6177;SDS011;3122;48.208;11.174;2022-12-07T21:57:45;21.67;;;12.07;;
6177;SDS011;3122;48.208;11.174;2022-12-07T22:02:46;21.83;;;12.90;;
6177;SDS011;3122;48.208;11.174;2022-12-07T22:07:46;20.10;;;12.43;;
6177;SDS011;3122;48.208;11.174;2022-12-07T22:12:47;16.83;;;10.53;;
6177;SDS011;3122;48.208;11.174;2022-12-07T22:17:48;18.90;;;11.37;;
6177;SDS011;3122;48.208;11.174;2022-12-07T22:22:49;16.70;;;10.03;;
6177;SDS011;3122;48.208;11.174;2022-12-07T22:27:49;20.20;;;10.73;;
6177;SDS011;3122;48.208;11.174;2022-12-07T22:32:50;21.47;;;11.80;;
6177;SDS011;3122;48.208;11.174;2022-12-07T22:37:51;27.00;;;15.07;;
6177;SDS011;3122;48.208;11.174;2022-12-07T22:42:51;34.33;;;19.87;;
6177;SDS011;3122;48.208;11.174;2022-12-07T22:47:52;23.57;;;12.60;;
6177;SDS011;3122;48.208;11.174;2022-12-07T22:52:52;22.73;;;12.40;;
6177;SDS011;3122;48.208;11.174;2022-12-07T22:57:53;20.57;;;12.07;;
6177;SDS011;3122;48.208;11.174;2022-12-07T23:02:54;19.83;;;11.80;;
6177;SDS011;3122;48.208;11.174;2022-12-07T23:07:55;20.27;;;11.40;;
6177;SDS011;3122;48.208;11.174;2022-12-07T23:12:55;23.20;;;12.83;;
6177;SDS011;3122;48.208;11.174;2022-12-07T23:18:14;17.77;;;10.87;;
6177;SDS011;3122;48.208;11.174;2022-12-07T23:23:15;22.63;;;12.07;;
6177;SDS011;3122;48.208;11.174;2022-12-07T23:28:16;19.90;;;11.03;;
6177;SDS011;3122;48.208;11.174;2022-12-07T23:33:16;21.80;;;12.67;;
6177;SDS011;3122;48.208;11.174;2022-12-07T23:38:17;21.63;;;12.77;;
6177;SDS011;3122;48.208;11.174;2022-12-07T23:43:17;20.80;;;12.10;;
6177;SDS011;3122;48.208;11.174;2022-12-07T23:48:18;21.40;;;12.90;;
6177;SDS011;3122;48.208;11.174;2022-12-07T23:53:18;22.97;;;12.60;;
6177;SDS011;3122;48.208;11.174;2022-12-07T23:58:19;21.47;;;12.63;;
